createdAt,value
2017-06-18T00:00:23.997Z,25.07
2017-06-18T00:01:04.455Z,25.12
2017-06-18T00:01:44.929Z,25.12
2017-06-18T00:02:25.385Z,25.15
2017-06-18T00:03:05.841Z,25.06
2017-06-18T00:03:46.301Z,25.11
2017-06-18T00:04:26.758Z,25.09
2017-06-18T00:05:07.214Z,25.14
2017-06-18T00:05:47.672Z,25.12
2017-06-18T00:06:28.123Z,25.09
2017-06-18T00:07:08.569Z,25.14
2017-06-18T00:07:49.027Z,25.12
2017-06-18T00:08:29.483Z,25.14
2017-06-18T00:09:09.943Z,25.12
2017-06-18T00:09:50.401Z,25.14
2017-06-18T00:10:30.861Z,25.14
2017-06-18T00:11:11.325Z,25.14
2017-06-18T00:11:51.782Z,25.14
2017-06-18T00:12:32.226Z,25.11
2017-06-18T00:13:12.697Z,25.15
2017-06-18T00:13:53.170Z,25.09
2017-06-18T00:14:33.615Z,25.14
2017-06-18T00:15:14.070Z,25.14
2017-06-18T00:15:54.526Z,25.11
2017-06-18T00:16:34.985Z,25.09
2017-06-18T00:17:15.445Z,25.15
2017-06-18T00:17:55.901Z,25.18
2017-06-18T00:18:36.357Z,25.14
2017-06-18T00:19:16.818Z,25.24
2017-06-18T00:19:57.282Z,25.15
2017-06-18T00:20:37.735Z,25.12
2017-06-18T00:21:18.193Z,25.12
2017-06-18T00:21:58.643Z,25.18
2017-06-18T00:22:39.101Z,25.21
2017-06-18T00:23:19.559Z,25.15
2017-06-18T00:24:00.019Z,25.22
2017-06-18T00:24:40.479Z,25.14
2017-06-18T00:25:20.939Z,25.22
2017-06-18T00:26:01.389Z,25.22
2017-06-18T00:26:41.843Z,25.21
2017-06-18T00:27:22.300Z,25.16
2017-06-18T00:28:02.763Z,25.21
2017-06-18T00:28:43.216Z,25.21
2017-06-18T00:29:23.666Z,25.21
2017-06-18T00:30:04.142Z,25.24
2017-06-18T00:30:44.588Z,25.21
2017-06-18T00:31:25.044Z,25.19
2017-06-18T00:32:05.500Z,25.18
2017-06-18T00:32:45.956Z,25.21
2017-06-18T00:33:26.412Z,25.15
2017-06-18T00:34:06.874Z,25.19
2017-06-18T00:34:47.332Z,25.21
2017-06-18T00:35:27.818Z,25.18
2017-06-18T00:36:08.278Z,25.21
2017-06-18T00:36:48.710Z,25.21
2017-06-18T00:37:29.177Z,25.19
2017-06-18T00:38:09.632Z,25.21
2017-06-18T00:38:50.088Z,25.24
2017-06-18T00:39:30.547Z,25.19
2017-06-18T00:40:11.011Z,25.22
2017-06-18T00:40:51.487Z,25.21
2017-06-18T00:41:31.965Z,25.22
2017-06-18T00:42:12.408Z,25.15
2017-06-18T00:42:52.868Z,25.18
2017-06-18T00:43:33.310Z,25.18
2017-06-18T00:44:13.777Z,25.19
2017-06-18T00:44:54.214Z,25.21
2017-06-18T00:45:34.675Z,25.19
2017-06-18T00:46:15.133Z,25.25
2017-06-18T00:46:55.572Z,25.25
2017-06-18T00:47:36.034Z,25.14
2017-06-18T00:48:16.474Z,25.18
2017-06-18T00:48:56.933Z,25.19
2017-06-18T00:49:37.401Z,25.18
2017-06-18T00:50:17.869Z,25.24
2017-06-18T00:50:58.329Z,25.21
2017-06-18T00:51:38.789Z,25.25
2017-06-18T00:52:19.246Z,25.21
2017-06-18T00:52:59.703Z,25.19
2017-06-18T00:53:40.141Z,25.24
2017-06-18T00:54:20.601Z,25.19
2017-06-18T00:55:01.058Z,25.24
2017-06-18T00:55:41.521Z,25.24
2017-06-18T00:56:21.975Z,25.19
2017-06-18T00:57:02.436Z,25.16
2017-06-18T00:57:42.895Z,25.21
2017-06-18T00:58:23.353Z,25.18
2017-06-18T00:59:03.811Z,25.22
2017-06-18T00:59:44.269Z,25.18
2017-06-18T01:00:24.730Z,25.12
2017-06-18T01:01:05.180Z,25.24
2017-06-18T01:01:45.638Z,25.29
2017-06-18T01:02:26.100Z,25.22
2017-06-18T01:03:06.554Z,25.21
2017-06-18T01:03:47.014Z,25.19
2017-06-18T01:04:27.471Z,25.16
2017-06-18T01:05:07.931Z,25.16
2017-06-18T01:05:48.396Z,25.19
2017-06-18T01:06:28.851Z,25.14
2017-06-18T01:07:09.309Z,25.18
2017-06-18T01:07:49.766Z,25.09
2017-06-18T01:08:30.224Z,25.15
2017-06-18T01:09:10.675Z,25.12
2017-06-18T01:09:51.134Z,25.07
2017-06-18T01:10:31.594Z,25.15
2017-06-18T01:11:12.052Z,25.09
2017-06-18T01:11:52.513Z,25.14
2017-06-18T01:12:32.972Z,25.12
2017-06-18T01:13:13.431Z,25.14
2017-06-18T01:13:53.888Z,25.12
2017-06-18T01:14:34.353Z,25.12
2017-06-18T01:15:14.819Z,25.18
2017-06-18T01:15:55.273Z,25.09
2017-06-18T01:16:35.739Z,25.11
2017-06-18T01:17:16.200Z,25.14
2017-06-18T01:17:56.656Z,25.04
2017-06-18T01:18:37.118Z,25.14
2017-06-18T01:19:17.582Z,25.07
2017-06-18T01:19:58.037Z,25.04
2017-06-18T01:20:38.502Z,25.03
2017-06-18T01:21:18.966Z,25.07
2017-06-18T01:21:59.420Z,25
2017-06-18T01:22:39.878Z,25.07
2017-06-18T01:23:20.331Z,25
2017-06-18T01:24:00.789Z,25.11
2017-06-18T01:24:41.246Z,25.09
2017-06-18T01:25:21.702Z,25.12
2017-06-18T01:26:02.158Z,25.01
2017-06-18T01:26:42.615Z,25.11
2017-06-18T01:27:23.074Z,25.09
2017-06-18T01:28:03.533Z,25.07
2017-06-18T01:28:43.990Z,25.09
2017-06-18T01:29:24.447Z,25.14
2017-06-18T01:30:04.904Z,25.09
2017-06-18T01:30:45.362Z,25.03
2017-06-18T01:31:25.825Z,25.03
2017-06-18T01:32:06.273Z,25.01
2017-06-18T01:32:46.712Z,25.09
2017-06-18T01:33:27.169Z,25.12
2017-06-18T01:34:07.632Z,25.09
2017-06-18T01:34:48.077Z,25.04
2017-06-18T01:35:28.533Z,25.04
2017-06-18T01:36:08.994Z,25.07
2017-06-18T01:36:49.455Z,25.14
2017-06-18T01:37:29.905Z,25.06
2017-06-18T01:38:10.359Z,25.14
2017-06-18T01:38:50.822Z,25.14
2017-06-18T01:39:31.341Z,25.04
2017-06-18T01:40:11.803Z,25.14
2017-06-18T01:40:52.260Z,25.07
2017-06-18T01:41:32.716Z,25.06
2017-06-18T01:42:13.171Z,25.04
2017-06-18T01:42:53.614Z,25.14
2017-06-18T01:43:34.071Z,25.12
2017-06-18T01:44:14.530Z,25.03
2017-06-18T01:44:54.980Z,25.06
2017-06-18T01:45:35.445Z,25.06
2017-06-18T01:46:15.906Z,25.04
2017-06-18T01:46:56.377Z,25.03
2017-06-18T01:47:36.836Z,25.04
2017-06-18T01:48:17.295Z,25.04
2017-06-18T01:48:57.748Z,25.12
2017-06-18T01:49:38.204Z,24.99
2017-06-18T01:50:18.658Z,25.03
2017-06-18T01:50:59.123Z,25.15
2017-06-18T01:51:39.573Z,25.11
2017-06-18T01:52:20.033Z,25.06
2017-06-18T01:53:00.493Z,25.12
2017-06-18T01:53:40.948Z,25.07
2017-06-18T01:54:21.408Z,25.12
2017-06-18T01:55:01.865Z,25.18
2017-06-18T01:55:42.324Z,25.14
2017-06-18T01:56:22.775Z,25.07
2017-06-18T01:57:03.235Z,25.16
2017-06-18T01:57:43.693Z,25.07
2017-06-18T01:58:24.153Z,25.09
2017-06-18T01:59:04.614Z,25.09
2017-06-18T01:59:45.076Z,25.18
2017-06-18T02:00:25.539Z,25.12
2017-06-18T02:01:06.001Z,25.18
2017-06-18T02:01:46.461Z,25.07
2017-06-18T02:02:26.920Z,25.07
2017-06-18T02:03:07.383Z,25.09
2017-06-18T02:03:47.832Z,25.07
2017-06-18T02:04:28.291Z,25.14
2017-06-18T02:05:08.752Z,25
2017-06-18T02:05:49.209Z,25.07
2017-06-18T02:06:29.670Z,25.12
2017-06-18T02:07:10.120Z,25.11
2017-06-18T02:07:50.566Z,25.12
2017-06-18T02:08:31.024Z,25.09
2017-06-18T02:09:11.486Z,25.11
2017-06-18T02:09:51.937Z,25.12
2017-06-18T02:10:32.401Z,25.07
2017-06-18T02:11:12.848Z,25.18
2017-06-18T02:11:53.317Z,25.12
2017-06-18T02:12:33.768Z,25.16
2017-06-18T02:13:14.231Z,25.16
2017-06-18T02:13:54.689Z,25.16
2017-06-18T02:14:35.139Z,25.15
2017-06-18T02:15:15.596Z,25.11
2017-06-18T02:15:56.046Z,25.12
2017-06-18T02:16:36.500Z,25.15
2017-06-18T02:17:16.955Z,25.15
2017-06-18T02:17:57.424Z,25.12
2017-06-18T02:18:37.888Z,25.14
2017-06-18T02:19:18.342Z,25.12
2017-06-18T02:19:58.806Z,25.09
2017-06-18T02:20:39.263Z,25.12
2017-06-18T02:21:19.720Z,25.06
2017-06-18T02:22:00.180Z,25.07
2017-06-18T02:22:40.670Z,25.09
2017-06-18T02:23:21.118Z,25.04
2017-06-18T02:24:01.575Z,25.03
2017-06-18T02:24:42.033Z,25.04
2017-06-18T02:25:22.490Z,24.99
2017-06-18T02:26:02.950Z,25.09
2017-06-18T02:26:43.405Z,25.11
2017-06-18T02:27:23.868Z,25.04
2017-06-18T02:28:04.317Z,25.01
2017-06-18T02:28:44.775Z,25.12
2017-06-18T02:29:25.240Z,25.09
2017-06-18T02:30:05.695Z,25.04
2017-06-18T02:30:46.157Z,25.09
2017-06-18T02:31:26.618Z,25.07
2017-06-18T02:32:07.079Z,25.01
2017-06-18T02:32:47.574Z,25.12
2017-06-18T02:33:28.030Z,25.07
2017-06-18T02:34:08.491Z,25.03
2017-06-18T02:34:48.955Z,25.04
2017-06-18T02:35:29.421Z,25.01
2017-06-18T02:36:09.884Z,25.06
2017-06-18T02:36:50.349Z,25
2017-06-18T02:37:30.806Z,24.97
2017-06-18T02:38:11.294Z,25.09
2017-06-18T02:38:51.729Z,24.96
2017-06-18T02:39:32.184Z,25
2017-06-18T02:40:12.648Z,24.96
2017-06-18T02:40:53.105Z,25
2017-06-18T02:41:33.581Z,25.04
2017-06-18T02:42:14.040Z,24.97
2017-06-18T02:42:54.507Z,25.07
2017-06-18T02:43:34.966Z,25.07
2017-06-18T02:44:15.428Z,25.07
2017-06-18T02:44:55.901Z,25.01
2017-06-18T02:45:36.383Z,25.04
2017-06-18T02:46:16.829Z,24.96
2017-06-18T02:46:57.286Z,25.09
2017-06-18T02:47:37.745Z,25
2017-06-18T02:48:18.206Z,24.97
2017-06-18T02:48:58.663Z,24.97
2017-06-18T02:49:39.122Z,24.96
2017-06-18T02:50:19.578Z,25.09
2017-06-18T02:51:00.046Z,24.96
2017-06-18T02:51:40.509Z,24.99
2017-06-18T02:52:20.969Z,24.96
2017-06-18T02:53:01.428Z,24.97
2017-06-18T02:53:41.882Z,24.96
2017-06-18T02:54:22.344Z,25
2017-06-18T02:55:02.793Z,24.93
2017-06-18T02:55:43.256Z,24.99
2017-06-18T02:56:23.716Z,25.01
2017-06-18T02:57:04.179Z,24.99
2017-06-18T02:57:44.644Z,25
2017-06-18T02:58:25.112Z,25.04
2017-06-18T02:59:05.566Z,24.99
2017-06-18T02:59:46.028Z,25
2017-06-18T03:00:26.493Z,25.09
2017-06-18T03:01:06.950Z,25.01
2017-06-18T03:01:47.410Z,25.06
2017-06-18T03:02:27.867Z,24.96
2017-06-18T03:03:08.326Z,24.97
2017-06-18T03:03:48.781Z,24.97
2017-06-18T03:04:29.242Z,24.99
2017-06-18T03:05:09.700Z,25
2017-06-18T03:05:50.153Z,24.97
2017-06-18T03:06:30.618Z,24.97
2017-06-18T03:07:11.079Z,25.03
2017-06-18T03:07:51.533Z,24.97
2017-06-18T03:08:31.981Z,24.97
2017-06-18T03:09:12.445Z,25.01
2017-06-18T03:09:52.903Z,24.99
2017-06-18T03:10:33.358Z,25
2017-06-18T03:11:13.805Z,25.06
2017-06-18T03:11:54.270Z,25.07
2017-06-18T03:12:34.736Z,25
2017-06-18T03:13:15.224Z,24.94
2017-06-18T03:13:55.670Z,25.12
2017-06-18T03:14:36.123Z,24.97
2017-06-18T03:15:16.581Z,25
2017-06-18T03:15:57.037Z,25.06
2017-06-18T03:16:37.493Z,25
2017-06-18T03:17:17.954Z,24.96
2017-06-18T03:17:58.414Z,25.04
2017-06-18T03:18:38.872Z,24.97
2017-06-18T03:19:19.330Z,25
2017-06-18T03:19:59.798Z,24.96
2017-06-18T03:20:40.256Z,24.97
2017-06-18T03:21:20.713Z,24.99
2017-06-18T03:22:01.178Z,25.06
2017-06-18T03:22:41.642Z,25.01
2017-06-18T03:23:22.100Z,25
2017-06-18T03:24:02.570Z,24.97
2017-06-18T03:24:43.030Z,24.97
2017-06-18T03:25:23.497Z,25.01
2017-06-18T03:26:03.948Z,24.93
2017-06-18T03:26:44.409Z,25
2017-06-18T03:27:24.872Z,25.04
2017-06-18T03:28:05.323Z,25
2017-06-18T03:28:45.789Z,24.97
2017-06-18T03:29:26.247Z,25.01
2017-06-18T03:30:06.707Z,24.96
2017-06-18T03:30:47.244Z,25
2017-06-18T03:31:27.705Z,24.97
2017-06-18T03:32:08.164Z,24.97
2017-06-18T03:32:48.626Z,24.96
2017-06-18T03:33:29.082Z,25
2017-06-18T03:34:09.539Z,24.96
2017-06-18T03:34:49.997Z,25.01
2017-06-18T03:35:30.463Z,24.97
2017-06-18T03:36:10.921Z,24.97
2017-06-18T03:36:51.374Z,24.99
2017-06-18T03:37:31.836Z,24.94
2017-06-18T03:38:12.293Z,24.94
2017-06-18T03:38:52.750Z,24.99
2017-06-18T03:39:33.213Z,25
2017-06-18T03:40:13.667Z,24.99
2017-06-18T03:40:54.120Z,24.93
2017-06-18T03:41:34.575Z,24.97
2017-06-18T03:42:15.035Z,25
2017-06-18T03:42:55.503Z,24.94
2017-06-18T03:43:35.967Z,25.06
2017-06-18T03:44:16.426Z,25.04
2017-06-18T03:44:56.891Z,25.03
2017-06-18T03:45:37.354Z,24.96
2017-06-18T03:46:17.816Z,25.01
2017-06-18T03:46:58.274Z,25.03
2017-06-18T03:47:38.737Z,25.12
2017-06-18T03:48:19.192Z,24.97
2017-06-18T03:48:59.645Z,24.99
2017-06-18T03:49:40.107Z,25.07
2017-06-18T03:50:20.567Z,24.99
2017-06-18T03:51:01.026Z,25.06
2017-06-18T03:51:41.489Z,25
2017-06-18T03:52:21.956Z,25
2017-06-18T03:53:02.419Z,24.99
2017-06-18T03:53:42.874Z,25.09
2017-06-18T03:54:23.337Z,25.03
2017-06-18T03:55:03.782Z,25.07
2017-06-18T03:55:44.244Z,25.12
2017-06-18T03:56:24.706Z,25
2017-06-18T03:57:05.165Z,24.99
2017-06-18T03:57:45.615Z,25.11
2017-06-18T03:58:26.080Z,24.99
2017-06-18T03:59:06.540Z,25.07
2017-06-18T03:59:46.997Z,25.06
2017-06-18T04:00:27.447Z,25
2017-06-18T04:01:07.910Z,25.06
2017-06-18T04:01:48.367Z,25.03
2017-06-18T04:02:28.827Z,25.06
2017-06-18T04:03:09.287Z,24.97
2017-06-18T04:03:49.749Z,25.03
2017-06-18T04:04:30.204Z,25.04
2017-06-18T04:05:10.648Z,25.04
2017-06-18T04:05:51.104Z,25
2017-06-18T04:06:31.548Z,25.01
2017-06-18T04:07:12.002Z,25.01
2017-06-18T04:07:52.468Z,25
2017-06-18T04:08:32.917Z,25.03
2017-06-18T04:09:13.384Z,25
2017-06-18T04:09:53.850Z,25
2017-06-18T04:10:34.312Z,25.09
2017-06-18T04:11:14.773Z,25.03
2017-06-18T04:11:55.239Z,25.06
2017-06-18T04:12:35.707Z,25.01
2017-06-18T04:13:16.159Z,25
2017-06-18T04:13:56.610Z,25.01
2017-06-18T04:14:37.066Z,25
2017-06-18T04:15:17.523Z,25.06
2017-06-18T04:15:57.978Z,25.07
2017-06-18T04:16:38.428Z,25.03
2017-06-18T04:17:18.878Z,25.07
2017-06-18T04:17:59.343Z,25.03
2017-06-18T04:18:39.798Z,25
2017-06-18T04:19:20.262Z,25.14
2017-06-18T04:20:00.725Z,25.07
2017-06-18T04:20:41.196Z,25.01
2017-06-18T04:21:21.634Z,25.14
2017-06-18T04:22:02.092Z,25
2017-06-18T04:22:42.549Z,25.03
2017-06-18T04:23:23.011Z,25.11
2017-06-18T04:24:03.470Z,25
2017-06-18T04:24:43.929Z,24.99
2017-06-18T04:25:24.386Z,24.97
2017-06-18T04:26:04.849Z,24.99
2017-06-18T04:26:45.308Z,24.99
2017-06-18T04:27:25.760Z,24.99
2017-06-18T04:28:06.221Z,24.97
2017-06-18T04:28:46.677Z,25
2017-06-18T04:29:27.135Z,24.94
2017-06-18T04:30:07.580Z,24.99
2017-06-18T04:30:48.030Z,24.96
2017-06-18T04:31:28.494Z,24.99
2017-06-18T04:32:08.942Z,24.96
2017-06-18T04:32:49.399Z,25
2017-06-18T04:33:29.856Z,24.97
2017-06-18T04:34:10.320Z,25
2017-06-18T04:34:50.856Z,24.96
2017-06-18T04:35:31.316Z,24.96
2017-06-18T04:36:11.774Z,24.99
2017-06-18T04:36:52.236Z,24.97
2017-06-18T04:37:32.693Z,24.96
2017-06-18T04:38:13.149Z,24.96
2017-06-18T04:38:53.603Z,24.96
2017-06-18T04:39:34.069Z,24.97
2017-06-18T04:40:14.522Z,25
2017-06-18T04:40:54.983Z,24.94
2017-06-18T04:41:35.441Z,24.99
2017-06-18T04:42:15.900Z,24.94
2017-06-18T04:42:56.364Z,24.99
2017-06-18T04:43:36.820Z,25
2017-06-18T04:44:17.279Z,25.01
2017-06-18T04:44:57.739Z,25.01
2017-06-18T04:45:38.184Z,24.97
2017-06-18T04:46:18.651Z,25.04
2017-06-18T04:46:59.099Z,25.03
2017-06-18T04:47:39.555Z,24.97
2017-06-18T04:48:20.015Z,25.01
2017-06-18T04:49:00.458Z,24.97
2017-06-18T04:49:40.917Z,24.96
2017-06-18T04:50:21.376Z,25.01
2017-06-18T04:51:01.832Z,24.97
2017-06-18T04:51:42.292Z,24.96
2017-06-18T04:52:22.756Z,24.96
2017-06-18T04:53:03.221Z,24.96
2017-06-18T04:53:43.663Z,24.94
2017-06-18T04:54:24.120Z,25.03
2017-06-18T04:55:04.582Z,25
2017-06-18T04:55:45.040Z,24.96
2017-06-18T04:56:25.501Z,25
2017-06-18T04:57:05.960Z,24.99
2017-06-18T04:57:46.417Z,24.96
2017-06-18T04:58:26.880Z,25.01
2017-06-18T04:59:07.340Z,24.97
2017-06-18T04:59:47.799Z,25.01
2017-06-18T05:00:28.258Z,25.09
2017-06-18T05:01:08.712Z,25
2017-06-18T05:01:49.169Z,25.04
2017-06-18T05:02:29.634Z,25.06
2017-06-18T05:03:10.087Z,25.01
2017-06-18T05:03:50.542Z,25.04
2017-06-18T05:04:31.002Z,25.04
2017-06-18T05:05:11.459Z,24.99
2017-06-18T05:05:51.918Z,24.97
2017-06-18T05:06:32.376Z,25.06
2017-06-18T05:07:12.839Z,24.99
2017-06-18T05:07:53.294Z,25.14
2017-06-18T05:08:33.782Z,25
2017-06-18T05:09:14.244Z,25.01
2017-06-18T05:09:54.707Z,25.03
2017-06-18T05:10:35.164Z,25
2017-06-18T05:11:15.620Z,25.03
2017-06-18T05:11:56.091Z,25.03
2017-06-18T05:12:36.544Z,25.06
2017-06-18T05:13:17.008Z,25
2017-06-18T05:13:57.473Z,25.03
2017-06-18T05:14:37.930Z,25.09
2017-06-18T05:15:18.395Z,25.15
2017-06-18T05:15:58.848Z,25.12
2017-06-18T05:16:39.307Z,25.14
2017-06-18T05:17:19.770Z,25.11
2017-06-18T05:18:00.223Z,25.03
2017-06-18T05:18:40.701Z,25.11
2017-06-18T05:19:21.159Z,25.11
2017-06-18T05:20:01.617Z,25.14
2017-06-18T05:20:42.075Z,25.16
2017-06-18T05:21:22.537Z,25.12
2017-06-18T05:22:03.001Z,25.19
2017-06-18T05:22:43.461Z,25.09
2017-06-18T05:23:23.917Z,25.15
2017-06-18T05:24:04.379Z,25.18
2017-06-18T05:24:44.838Z,25.14
2017-06-18T05:25:25.295Z,25.22
2017-06-18T05:26:05.756Z,25.16
2017-06-18T05:26:46.223Z,25.21
2017-06-18T05:27:26.683Z,25.21
2017-06-18T05:28:07.144Z,25.15
2017-06-18T05:28:47.603Z,25.18
2017-06-18T05:29:28.058Z,25.18
2017-06-18T05:30:08.519Z,25.16
2017-06-18T05:30:48.977Z,25.19
2017-06-18T05:31:29.440Z,25.19
2017-06-18T05:32:09.902Z,25.24
2017-06-18T05:32:50.365Z,25.15
2017-06-18T05:33:30.821Z,25.21
2017-06-18T05:34:11.280Z,25.18
2017-06-18T05:34:51.737Z,25.19
2017-06-18T05:35:32.197Z,25.19
2017-06-18T05:36:12.656Z,25.18
2017-06-18T05:36:53.114Z,25.26
2017-06-18T05:37:33.568Z,25.21
2017-06-18T05:38:14.029Z,25.26
2017-06-18T05:38:54.488Z,25.15
2017-06-18T05:39:34.944Z,25.22
2017-06-18T05:40:15.528Z,25.29
2017-06-18T05:40:55.912Z,25.21
2017-06-18T05:41:36.370Z,25.22
2017-06-18T05:42:16.829Z,25.25
2017-06-18T05:42:57.285Z,25.21
2017-06-18T05:43:37.742Z,25.21
2017-06-18T05:44:18.198Z,25.12
2017-06-18T05:44:58.657Z,25.12
2017-06-18T05:45:39.112Z,25.19
2017-06-18T05:46:19.573Z,25.12
2017-06-18T05:47:00.030Z,25.18
2017-06-18T05:47:40.491Z,25.22
2017-06-18T05:48:20.985Z,25.15
2017-06-18T05:49:01.445Z,25.14
2017-06-18T05:49:41.905Z,25.19
2017-06-18T05:50:22.362Z,25.19
2017-06-18T05:51:02.819Z,25.19
2017-06-18T05:51:43.295Z,25.24
2017-06-18T05:52:23.757Z,25.18
2017-06-18T05:53:04.222Z,25.21
2017-06-18T05:53:44.685Z,25.19
2017-06-18T05:54:25.147Z,25.21
2017-06-18T05:55:05.603Z,25.26
2017-06-18T05:55:46.058Z,25.15
2017-06-18T05:56:26.517Z,25.21
2017-06-18T05:57:06.978Z,25.15
2017-06-18T05:57:47.429Z,25.19
2017-06-18T05:58:27.892Z,25.21
2017-06-18T05:59:08.356Z,25.24
2017-06-18T05:59:48.811Z,25.29
2017-06-18T06:00:29.269Z,25.25
2017-06-18T06:01:09.731Z,25.31
2017-06-18T06:01:50.188Z,25.31
2017-06-18T06:02:30.718Z,25.22
2017-06-18T06:03:11.181Z,25.24
2017-06-18T06:03:51.639Z,25.36
2017-06-18T06:04:32.096Z,25.24
2017-06-18T06:05:12.554Z,25.34
2017-06-18T06:05:53.017Z,25.33
2017-06-18T06:06:33.471Z,25.34
2017-06-18T06:07:13.929Z,25.36
2017-06-18T06:07:54.395Z,25.39
2017-06-18T06:08:34.848Z,25.36
2017-06-18T06:09:15.306Z,25.34
2017-06-18T06:09:55.773Z,25.37
2017-06-18T06:10:36.234Z,25.39
2017-06-18T06:11:16.693Z,25.36
2017-06-18T06:11:57.147Z,25.36
2017-06-18T06:12:37.607Z,25.36
2017-06-18T06:13:18.065Z,25.37
2017-06-18T06:13:58.529Z,25.4
2017-06-18T06:14:38.998Z,25.36
2017-06-18T06:15:19.446Z,25.44
2017-06-18T06:15:59.924Z,25.54
2017-06-18T06:16:40.353Z,25.48
2017-06-18T06:17:20.811Z,25.46
2017-06-18T06:18:01.276Z,25.44
2017-06-18T06:18:41.736Z,25.51
2017-06-18T06:19:22.189Z,25.48
2017-06-18T06:20:02.648Z,25.49
2017-06-18T06:20:43.111Z,25.48
2017-06-18T06:21:23.574Z,25.56
2017-06-18T06:22:04.017Z,25.48
2017-06-18T06:22:44.475Z,25.52
2017-06-18T06:23:24.947Z,25.49
2017-06-18T06:24:05.409Z,25.46
2017-06-18T06:24:45.865Z,25.48
2017-06-18T06:25:26.324Z,25.48
2017-06-18T06:26:06.781Z,25.48
2017-06-18T06:26:47.240Z,25.48
2017-06-18T06:27:27.697Z,25.51
2017-06-18T06:28:08.155Z,25.51
2017-06-18T06:28:48.610Z,25.51
2017-06-18T06:29:29.077Z,25.46
2017-06-18T06:30:09.536Z,25.49
2017-06-18T06:30:49.995Z,25.48
2017-06-18T06:31:30.471Z,25.4
2017-06-18T06:32:10.938Z,25.34
2017-06-18T06:32:51.397Z,25.48
2017-06-18T06:33:31.880Z,25.41
2017-06-18T06:34:12.333Z,25.49
2017-06-18T06:34:52.809Z,25.44
2017-06-18T06:35:33.276Z,25.44
2017-06-18T06:36:13.732Z,25.39
2017-06-18T06:36:54.201Z,25.52
2017-06-18T06:37:34.698Z,25.41
2017-06-18T06:38:15.160Z,25.48
2017-06-18T06:38:55.622Z,25.49
2017-06-18T06:39:36.086Z,25.48
2017-06-18T06:40:16.535Z,25.48
2017-06-18T06:40:57.000Z,25.54
2017-06-18T06:41:37.457Z,25.46
2017-06-18T06:42:17.917Z,25.49
2017-06-18T06:42:58.366Z,25.62
2017-06-18T06:43:38.825Z,25.56
2017-06-18T06:44:19.283Z,25.51
2017-06-18T06:44:59.735Z,25.54
2017-06-18T06:45:40.218Z,25.59
2017-06-18T06:46:20.635Z,25.63
2017-06-18T06:47:01.096Z,25.56
2017-06-18T06:47:41.564Z,25.62
2017-06-18T06:48:22.028Z,25.7
2017-06-18T06:49:02.487Z,25.59
2017-06-18T06:49:42.948Z,25.67
2017-06-18T06:50:23.433Z,25.61
2017-06-18T06:51:03.877Z,25.66
2017-06-18T06:51:44.346Z,25.59
2017-06-18T06:52:24.821Z,25.74
2017-06-18T06:53:05.284Z,25.7
2017-06-18T06:53:45.744Z,25.71
2017-06-18T06:54:26.225Z,25.71
2017-06-18T06:55:06.660Z,25.76
2017-06-18T06:55:47.121Z,25.78
2017-06-18T06:56:27.596Z,25.8
2017-06-18T06:57:08.048Z,25.77
2017-06-18T06:57:48.509Z,25.77
2017-06-18T06:58:28.972Z,25.7
2017-06-18T07:00:16.711Z,25.74
2017-06-18T07:00:57.157Z,25.81
2017-06-18T07:01:37.607Z,25.85
2017-06-18T07:02:18.065Z,25.76
2017-06-18T07:02:58.491Z,25.71
2017-06-18T07:03:38.959Z,25.73
2017-06-18T07:04:19.392Z,25.78
2017-06-18T07:04:59.848Z,25.74
2017-06-18T07:05:40.296Z,25.78
2017-06-18T07:06:20.746Z,25.74
2017-06-18T07:07:01.212Z,25.7
2017-06-18T07:07:41.661Z,25.78
2017-06-18T07:08:22.111Z,25.83
2017-06-18T07:09:02.560Z,25.78
2017-06-18T07:09:43.019Z,25.83
2017-06-18T07:10:23.469Z,25.83
2017-06-18T07:11:03.926Z,25.86
2017-06-18T07:11:44.390Z,25.8
2017-06-18T07:12:24.843Z,25.86
2017-06-18T07:13:05.307Z,25.89
2017-06-18T07:13:45.761Z,25.89
2017-06-18T07:14:26.213Z,25.91
2017-06-18T07:15:06.687Z,25.89
2017-06-18T07:15:47.128Z,25.96
2017-06-18T07:16:27.566Z,25.91
2017-06-18T07:17:08.010Z,25.93
2017-06-18T07:17:48.449Z,25.96
2017-06-18T07:18:28.890Z,26.03
2017-06-18T07:19:09.327Z,25.92
2017-06-18T07:19:49.752Z,26.01
2017-06-18T07:20:30.165Z,25.96
2017-06-18T07:21:10.597Z,25.98
2017-06-18T07:21:51.050Z,25.99
2017-06-18T07:22:31.482Z,26.04
2017-06-18T07:23:11.941Z,25.96
2017-06-18T07:23:52.406Z,25.96
2017-06-18T07:24:32.851Z,26.06
2017-06-18T07:25:13.317Z,26.1
2017-06-18T07:25:53.763Z,26.1
2017-06-18T07:26:34.213Z,25.96
2017-06-18T07:27:14.650Z,25.98
2017-06-18T07:27:55.091Z,25.99
2017-06-18T07:28:35.511Z,25.98
2017-06-18T07:29:15.946Z,26.03
2017-06-18T07:29:56.390Z,26.04
2017-06-18T07:30:36.795Z,26.04
2017-06-18T07:31:17.277Z,26.08
2017-06-18T07:31:57.713Z,26.1
2017-06-18T07:33:45.490Z,26.18
2017-06-18T07:34:25.950Z,26.18
2017-06-18T07:35:06.386Z,26.11
2017-06-18T07:35:46.864Z,26.13
2017-06-18T07:36:27.286Z,26.22
2017-06-18T07:37:07.731Z,26.26
2017-06-18T07:37:48.190Z,26.26
2017-06-18T07:38:28.638Z,26.26
2017-06-18T07:39:09.094Z,26.22
2017-06-18T07:39:49.537Z,26.31
2017-06-18T07:40:30.007Z,26.26
2017-06-18T07:41:10.443Z,26.31
2017-06-18T07:41:50.890Z,26.34
2017-06-18T07:42:31.338Z,26.36
2017-06-18T07:43:11.797Z,26.36
2017-06-18T07:43:52.230Z,26.31
2017-06-18T07:44:32.686Z,26.31
2017-06-18T07:45:13.108Z,26.39
2017-06-18T07:45:53.538Z,26.31
2017-06-18T07:46:33.973Z,26.36
2017-06-18T07:47:14.427Z,26.36
2017-06-18T07:47:54.875Z,26.41
2017-06-18T07:48:35.311Z,26.44
2017-06-18T07:49:15.754Z,26.41
2017-06-18T07:49:56.209Z,26.44
2017-06-18T07:50:36.615Z,26.37
2017-06-18T07:51:17.030Z,26.46
2017-06-18T07:51:57.492Z,26.37
2017-06-18T07:52:37.961Z,26.45
2017-06-18T07:53:18.384Z,26.41
2017-06-18T07:55:31.403Z,26.51
2017-06-18T07:56:11.846Z,26.49
2017-06-18T07:56:52.296Z,26.48
2017-06-18T07:57:32.757Z,26.44
2017-06-18T07:58:13.191Z,26.46
2017-06-18T07:58:53.656Z,26.48
2017-06-18T07:59:34.086Z,26.46
2017-06-18T08:00:14.548Z,26.48
2017-06-18T08:00:54.995Z,26.48
2017-06-18T08:01:35.406Z,26.46
2017-06-18T08:02:15.859Z,26.52
2017-06-18T08:02:56.275Z,26.51
2017-06-18T08:03:36.726Z,26.59
2017-06-18T08:04:17.469Z,26.49
2017-06-18T08:04:58.110Z,26.53
2017-06-18T08:05:38.838Z,26.55
2017-06-18T08:06:19.492Z,26.56
2017-06-18T08:07:00.022Z,26.61
2017-06-18T08:07:40.494Z,26.56
2017-06-18T08:08:20.982Z,26.64
2017-06-18T08:09:01.425Z,26.66
2017-06-18T08:09:41.961Z,26.56
2017-06-18T08:10:22.514Z,26.59
2017-06-18T08:11:03.001Z,26.49
2017-06-18T08:13:00.818Z,26.51
2017-06-18T08:13:41.249Z,26.53
2017-06-18T08:14:21.680Z,26.53
2017-06-18T08:15:02.169Z,26.61
2017-06-18T08:15:42.651Z,26.56
2017-06-18T08:16:23.101Z,26.63
2017-06-18T08:17:03.499Z,26.52
2017-06-18T08:17:43.907Z,26.61
2017-06-18T08:18:24.335Z,26.64
2017-06-18T08:19:04.859Z,26.64
2017-06-18T08:19:45.495Z,26.71
2017-06-18T08:20:25.950Z,26.64
2017-06-18T08:21:06.351Z,26.74
2017-06-18T08:21:46.800Z,26.79
2017-06-18T08:23:59.840Z,26.82
2017-06-18T08:24:40.217Z,26.83
2017-06-18T08:25:20.848Z,26.74
2017-06-18T08:26:01.392Z,26.88
2017-06-18T08:26:41.991Z,26.82
2017-06-18T08:27:22.437Z,26.86
2017-06-18T08:28:02.948Z,26.83
2017-06-18T08:28:43.444Z,26.89
2017-06-18T08:29:23.862Z,26.82
2017-06-18T08:30:04.311Z,26.82
2017-06-18T08:30:44.747Z,26.82
2017-06-18T08:31:25.214Z,26.82
2017-06-18T08:32:05.644Z,26.76
2017-06-18T08:32:46.042Z,26.74
2017-06-18T08:33:26.614Z,26.85
2017-06-18T08:34:07.209Z,26.82
2017-06-18T08:36:05.139Z,26.91
2017-06-18T08:36:45.553Z,26.86
2017-06-18T08:37:26.064Z,26.86
2017-06-18T08:38:06.531Z,26.85
2017-06-18T08:38:47.053Z,26.79
2017-06-18T08:39:27.466Z,26.85
2017-06-18T08:40:07.877Z,26.91
2017-06-18T08:40:48.311Z,26.82
2017-06-18T08:41:28.741Z,26.85
2017-06-18T08:42:09.188Z,26.89
2017-06-18T08:42:49.679Z,26.88
2017-06-18T08:43:30.317Z,26.86
2017-06-18T08:44:10.867Z,26.88
2017-06-18T08:44:51.366Z,26.89
2017-06-18T08:45:31.789Z,26.82
2017-06-18T08:46:12.236Z,26.83
2017-06-18T08:46:52.792Z,26.83
2017-06-18T08:47:33.289Z,26.7
2017-06-18T08:48:13.781Z,26.85
2017-06-18T08:48:54.284Z,26.82
2017-06-18T08:49:34.769Z,26.79
2017-06-18T08:50:15.293Z,26.76
2017-06-18T08:50:55.880Z,26.74
2017-06-18T08:51:36.281Z,26.82
2017-06-18T08:52:16.704Z,26.71